createdAt,value
2018-12-20T00:00:50.178Z,1.84
2018-12-20T00:02:50.522Z,1.83
2018-12-20T00:04:50.355Z,1.81
2018-12-20T00:06:49.985Z,1.80
2018-12-20T00:08:50.338Z,1.79
2018-12-20T00:10:50.966Z,1.78
2018-12-20T00:12:50.188Z,1.77
2018-12-20T00:14:50.587Z,1.76
2018-12-20T00:16:50.210Z,1.76
2018-12-20T00:18:50.486Z,1.77
2018-12-20T00:20:50.720Z,1.78
2018-12-20T00:22:50.010Z,1.81
2018-12-20T00:24:50.381Z,1.84
2018-12-20T00:26:49.763Z,1.86
2018-12-20T00:28:49.990Z,1.86
2018-12-20T00:30:50.261Z,1.86
2018-12-20T00:32:50.482Z,1.87
2018-12-20T00:34:50.265Z,1.86
2018-12-20T00:36:50.146Z,1.84
2018-12-20T00:38:50.527Z,1.86
2018-12-20T00:40:50.850Z,1.86
2018-12-20T00:42:50.123Z,1.88
2018-12-20T00:44:50.510Z,1.87
2018-12-20T00:46:49.706Z,1.88
2018-12-20T00:48:50.816Z,1.87
2018-12-20T00:50:50.079Z,1.86
2018-12-20T00:52:50.554Z,1.86
2018-12-20T00:54:50.078Z,1.85
2018-12-20T00:56:50.459Z,1.85
2018-12-20T00:58:49.839Z,1.85
2018-12-20T01:00:50.218Z,1.85
2018-12-20T01:02:56.121Z,1.86
2018-12-20T01:04:50.730Z,1.86
2018-12-20T01:06:50.450Z,1.89
2018-12-20T01:08:50.701Z,1.90
2018-12-20T01:10:50.135Z,1.90
2018-12-20T01:12:50.602Z,1.89
2018-12-20T01:14:50.945Z,1.90
2018-12-20T01:16:50.422Z,1.91
2018-12-20T01:18:50.769Z,1.91
2018-12-20T01:20:50.114Z,1.91
2018-12-20T01:22:50.539Z,1.91
2018-12-20T01:24:50.639Z,1.90
2018-12-20T01:26:50.207Z,1.89
2018-12-20T01:28:50.384Z,1.88
2018-12-20T01:30:50.741Z,1.89
2018-12-20T01:32:50.108Z,1.90
2018-12-20T01:34:50.984Z,1.91
2018-12-20T01:36:50.606Z,1.93
2018-12-20T01:38:50.869Z,1.95
2018-12-20T01:40:50.083Z,1.97
2018-12-20T01:42:50.614Z,1.97
2018-12-20T01:44:54.352Z,1.97
2018-12-20T01:46:50.840Z,1.99
2018-12-20T01:48:50.227Z,2.00
2018-12-20T01:50:50.655Z,2.00
2018-12-20T01:52:49.988Z,1.99
2018-12-20T01:54:50.308Z,2.00
2018-12-20T01:56:49.932Z,2.00
2018-12-20T01:58:50.472Z,2.01
2018-12-20T02:00:50.342Z,2.01
2018-12-20T02:02:50.546Z,2.02
2018-12-20T02:04:50.487Z,2.02
2018-12-20T02:06:50.066Z,2.05
2018-12-20T02:08:50.719Z,2.07
2018-12-20T02:10:50.154Z,2.08
2018-12-20T02:12:50.535Z,2.09
2018-12-20T02:14:49.892Z,2.09
2018-12-20T02:16:50.393Z,2.08
2018-12-20T02:18:50.866Z,2.08
2018-12-20T02:20:50.297Z,2.08
2018-12-20T02:22:50.747Z,2.08
2018-12-20T02:24:50.236Z,2.07
2018-12-20T02:26:50.008Z,2.08
2018-12-20T02:28:50.400Z,2.09
2018-12-20T02:30:50.297Z,2.11
2018-12-20T02:32:50.983Z,2.13
2018-12-20T02:34:50.602Z,2.15
2018-12-20T02:36:50.561Z,2.17
2018-12-20T02:38:49.957Z,2.16
2018-12-20T02:40:49.975Z,2.16
2018-12-20T02:42:49.949Z,2.17
2018-12-20T02:44:50.537Z,2.17
2018-12-20T02:46:50.255Z,2.18
2018-12-20T02:48:50.878Z,2.19
2018-12-20T02:50:50.662Z,2.20
2018-12-20T02:52:50.270Z,2.22
2018-12-20T02:54:50.779Z,2.24
2018-12-20T02:56:50.593Z,2.25
2018-12-20T02:58:50.995Z,2.27
2018-12-20T03:00:50.596Z,2.28
2018-12-20T03:02:49.972Z,2.28
2018-12-20T03:04:50.450Z,2.29
2018-12-20T03:06:49.863Z,2.27
2018-12-20T03:08:49.910Z,2.29
2018-12-20T03:10:50.013Z,2.30
2018-12-20T03:12:50.371Z,2.31
2018-12-20T03:14:51.164Z,2.31
2018-12-20T03:16:50.383Z,2.31
2018-12-20T03:18:50.746Z,2.33
2018-12-20T03:20:50.791Z,2.33
2018-12-20T03:22:50.365Z,2.33
2018-12-20T03:24:50.995Z,2.33
2018-12-20T03:26:50.550Z,2.34
2018-12-20T03:28:50.767Z,2.34
2018-12-20T03:30:51.039Z,2.34
2018-12-20T03:32:50.109Z,2.34
2018-12-20T03:34:51.064Z,2.34
2018-12-20T03:36:50.830Z,2.33
2018-12-20T03:38:50.605Z,2.33
2018-12-20T03:40:50.333Z,2.32
2018-12-20T03:42:50.856Z,2.32
2018-12-20T03:44:50.248Z,2.33
2018-12-20T03:46:50.506Z,2.35
2018-12-20T03:48:51.037Z,2.36
2018-12-20T03:50:50.887Z,2.36
2018-12-20T03:52:50.353Z,2.36
2018-12-20T03:54:50.920Z,2.36
2018-12-20T03:56:50.949Z,2.39
2018-12-20T03:58:50.828Z,2.40
2018-12-20T04:00:50.298Z,2.41
2018-12-20T04:02:51.170Z,2.40
2018-12-20T04:04:49.776Z,2.41
2018-12-20T04:06:50.442Z,2.41
2018-12-20T04:08:51.108Z,2.41
2018-12-20T04:10:50.531Z,2.43
2018-12-20T04:12:51.054Z,2.46
2018-12-20T04:14:50.937Z,2.46
2018-12-20T04:16:50.819Z,2.47
2018-12-20T04:18:50.485Z,2.48
2018-12-20T04:20:50.887Z,2.50
2018-12-20T04:22:50.591Z,2.50
2018-12-20T04:24:50.332Z,2.51
2018-12-20T04:26:51.258Z,2.51
2018-12-20T04:28:50.356Z,2.51
2018-12-20T04:30:50.725Z,2.53
2018-12-20T04:32:50.464Z,2.53
2018-12-20T04:34:50.500Z,2.53
2018-12-20T04:36:50.221Z,2.55
2018-12-20T04:38:51.223Z,2.56
2018-12-20T04:40:50.822Z,2.57
2018-12-20T04:42:50.449Z,2.57
2018-12-20T04:44:50.352Z,2.57
2018-12-20T04:46:50.094Z,2.58
2018-12-20T04:48:50.770Z,2.58
2018-12-20T04:50:50.224Z,2.60
2018-12-20T04:52:51.248Z,2.62
2018-12-20T04:54:50.771Z,2.64
2018-12-20T04:56:50.527Z,2.67
2018-12-20T04:58:50.095Z,2.69
2018-12-20T05:00:51.021Z,2.68
2018-12-20T05:02:50.103Z,2.69
2018-12-20T05:04:50.387Z,2.70
2018-12-20T05:06:50.559Z,2.71
2018-12-20T05:08:50.946Z,2.72
2018-12-20T05:10:50.710Z,2.73
2018-12-20T05:12:49.945Z,2.73
2018-12-20T05:14:50.507Z,2.76
2018-12-20T05:16:49.959Z,2.78
2018-12-20T05:18:50.240Z,2.76
2018-12-20T05:20:50.333Z,2.76
2018-12-20T05:22:51.023Z,2.78
2018-12-20T05:24:50.018Z,2.80
2018-12-20T05:26:50.408Z,2.81
2018-12-20T05:28:50.196Z,2.82
2018-12-20T05:30:50.669Z,2.84
2018-12-20T05:32:50.416Z,2.85
2018-12-20T05:34:50.443Z,2.86
2018-12-20T05:36:50.545Z,2.91
2018-12-20T05:38:49.952Z,2.94
2018-12-20T05:40:50.420Z,2.95
2018-12-20T05:42:50.088Z,2.98
2018-12-20T05:44:50.678Z,2.99
2018-12-20T05:46:50.198Z,3.00
2018-12-20T05:48:50.562Z,3.01
2018-12-20T05:50:50.348Z,3.03
2018-12-20T05:52:50.754Z,3.05
2018-12-20T05:54:50.009Z,3.07
2018-12-20T05:56:50.501Z,3.08
2018-12-20T05:58:50.016Z,3.06
2018-12-20T06:00:50.779Z,3.06
2018-12-20T06:02:50.486Z,3.06
2018-12-20T06:04:50.534Z,3.06
2018-12-20T06:06:50.573Z,3.06
2018-12-20T06:08:50.945Z,3.07
2018-12-20T06:10:50.169Z,3.07
2018-12-20T06:12:50.377Z,3.08
2018-12-20T06:14:50.371Z,3.08
2018-12-20T06:16:50.904Z,3.10
2018-12-20T06:18:50.471Z,3.13
2018-12-20T06:20:50.119Z,3.14
2018-12-20T06:22:50.141Z,3.14
2018-12-20T06:24:50.169Z,3.14
2018-12-20T06:26:50.272Z,3.13
2018-12-20T06:28:50.205Z,3.13
2018-12-20T06:30:50.132Z,3.12
2018-12-20T06:32:50.141Z,3.12
2018-12-20T06:34:50.401Z,3.07
2018-12-20T06:36:50.257Z,3.05
2018-12-20T06:38:50.202Z,3.04
2018-12-20T06:40:50.172Z,3.04
2018-12-20T06:42:50.190Z,3.05
2018-12-20T06:44:50.174Z,3.06
2018-12-20T06:46:50.419Z,3.04
2018-12-20T06:48:50.350Z,3.04
2018-12-20T06:50:50.309Z,3.03
2018-12-20T06:52:50.301Z,3.04
2018-12-20T06:54:50.307Z,3.04
2018-12-20T06:56:50.494Z,3.08
2018-12-20T06:58:50.505Z,3.08
2018-12-20T07:00:50.547Z,3.09
2018-12-20T07:02:50.463Z,3.10
2018-12-20T07:04:49.800Z,3.07
2018-12-20T07:06:49.948Z,3.06
2018-12-20T07:08:49.943Z,3.03
2018-12-20T07:10:49.933Z,3.02
2018-12-20T07:12:49.945Z,3.02
2018-12-20T07:14:49.906Z,3.00
2018-12-20T07:16:50.040Z,3.00
2018-12-20T07:18:49.964Z,3.03
2018-12-20T07:20:49.926Z,3.04
2018-12-20T07:22:49.864Z,3.05
2018-12-20T07:24:49.926Z,3.06
2018-12-20T07:26:50.124Z,3.07
2018-12-20T07:28:50.119Z,3.08
2018-12-20T07:30:50.068Z,3.10
2018-12-20T07:32:50.116Z,3.12
2018-12-20T07:34:50.338Z,3.17
2018-12-20T07:36:50.499Z,3.23
2018-12-20T07:38:50.424Z,3.26
2018-12-20T07:40:50.432Z,3.27
2018-12-20T07:42:50.405Z,3.31
2018-12-20T07:44:50.402Z,3.34
2018-12-20T07:46:50.664Z,3.36
2018-12-20T07:48:49.694Z,3.38
2018-12-20T07:50:49.787Z,3.42
2018-12-20T07:52:49.975Z,3.45
2018-12-20T07:54:49.982Z,3.48
2018-12-20T07:56:50.226Z,3.50
2018-12-20T07:58:50.346Z,3.54
2018-12-20T08:00:50.398Z,3.56
2018-12-20T08:02:50.601Z,3.60
2018-12-20T08:04:49.963Z,3.63
2018-12-20T08:06:50.212Z,3.67
2018-12-20T08:08:50.170Z,3.67
2018-12-20T08:10:50.178Z,3.72
2018-12-20T08:12:50.174Z,3.75
2018-12-20T08:14:50.120Z,3.80
2018-12-20T08:16:50.199Z,3.83
2018-12-20T08:18:50.184Z,3.86
2018-12-20T08:20:50.186Z,3.87
2018-12-20T08:22:50.223Z,3.88
2018-12-20T08:24:50.261Z,3.90
2018-12-20T08:26:50.407Z,3.91
2018-12-20T08:28:50.180Z,3.94
2018-12-20T08:30:50.210Z,3.96
2018-12-20T08:32:50.161Z,3.98
2018-12-20T08:34:50.507Z,4.00
2018-12-20T08:36:49.716Z,4.02
2018-12-20T08:38:49.712Z,4.02
2018-12-20T08:40:49.687Z,4.04
2018-12-20T08:42:49.747Z,4.02
2018-12-20T08:44:49.687Z,4.00
2018-12-20T08:46:54.918Z,3.98
2018-12-20T08:48:49.997Z,3.98
2018-12-20T08:50:50.005Z,3.97
2018-12-20T08:52:49.954Z,3.96
2018-12-20T08:54:49.881Z,3.95
2018-12-20T08:56:50.209Z,3.95
2018-12-20T08:58:50.125Z,3.95
2018-12-20T09:00:50.466Z,3.95
2018-12-20T09:02:50.510Z,3.99
2018-12-20T09:04:50.015Z,4.01
2018-12-20T09:06:50.236Z,4.01
2018-12-20T09:08:50.169Z,4.01
2018-12-20T09:10:50.148Z,4.00
2018-12-20T09:12:50.185Z,3.99
2018-12-20T09:14:50.167Z,4.02
2018-12-20T09:16:50.397Z,4.04
2018-12-20T09:18:50.416Z,4.10
2018-12-20T09:20:50.480Z,4.13
2018-12-20T09:22:50.491Z,4.14
2018-12-20T09:24:50.499Z,4.15
2018-12-20T09:26:49.937Z,4.16
2018-12-20T09:28:49.911Z,4.17
2018-12-20T09:30:49.826Z,4.17
2018-12-20T09:32:50.004Z,4.18
2018-12-20T09:34:50.285Z,4.19
2018-12-20T09:36:50.440Z,4.21
2018-12-20T09:38:50.388Z,4.23
2018-12-20T09:40:50.309Z,4.24
2018-12-20T09:42:50.251Z,4.26
2018-12-20T09:44:50.173Z,4.29
2018-12-20T09:46:50.471Z,4.34
2018-12-20T09:48:50.483Z,4.41
2018-12-20T09:50:50.448Z,4.47
2018-12-20T09:52:50.378Z,4.51
2018-12-20T09:54:50.336Z,4.54
2018-12-20T09:56:50.599Z,4.55
2018-12-20T09:58:50.574Z,4.58
2018-12-20T10:00:50.542Z,4.59
2018-12-20T10:02:50.592Z,4.60
2018-12-20T10:04:50.169Z,4.60
2018-12-20T10:06:50.441Z,4.61
2018-12-20T10:08:50.462Z,4.67
2018-12-20T10:10:50.576Z,4.73
2018-12-20T10:12:50.527Z,4.79
2018-12-20T10:14:50.660Z,4.80
2018-12-20T10:16:49.889Z,4.85
2018-12-20T10:18:49.860Z,4.89
2018-12-20T10:20:49.986Z,4.94
2018-12-20T10:22:50.038Z,5.01
2018-12-20T10:24:50.070Z,5.07
2018-12-20T10:26:50.330Z,5.15
2018-12-20T10:28:50.325Z,5.17
2018-12-20T10:30:50.324Z,5.18
2018-12-20T10:32:50.362Z,5.22
2018-12-20T10:34:50.596Z,5.29
2018-12-20T10:36:49.697Z,5.34
2018-12-20T10:38:49.724Z,5.35
2018-12-20T10:40:49.703Z,5.35
2018-12-20T10:42:49.693Z,5.41
2018-12-20T10:44:49.690Z,5.48
2018-12-20T10:46:50.012Z,5.56
2018-12-20T10:48:50.084Z,5.63
2018-12-20T10:50:50.052Z,5.70
2018-12-20T10:52:50.063Z,5.72
2018-12-20T10:54:50.029Z,5.69
2018-12-20T10:56:50.163Z,5.74
2018-12-20T10:58:50.152Z,5.78
2018-12-20T11:00:50.157Z,5.87
2018-12-20T11:02:50.218Z,5.99
2018-12-20T11:04:50.649Z,6.09
2018-12-20T11:06:50.239Z,6.13
2018-12-20T11:08:49.913Z,6.13
2018-12-20T11:10:49.876Z,6.11
2018-12-20T11:12:50.035Z,6.04
2018-12-20T11:14:50.008Z,5.96
2018-12-20T11:16:50.166Z,5.96
2018-12-20T11:18:50.151Z,5.93
2018-12-20T11:20:50.184Z,5.93
2018-12-20T11:22:50.192Z,5.92
2018-12-20T11:24:50.098Z,5.86
2018-12-20T11:26:50.270Z,5.84
2018-12-20T11:28:50.211Z,5.83
2018-12-20T11:30:50.211Z,5.85
2018-12-20T11:32:50.126Z,5.86
2018-12-20T11:34:50.428Z,5.88
2018-12-20T11:36:50.648Z,5.92
2018-12-20T11:38:50.616Z,5.92
2018-12-20T11:40:50.616Z,5.96
2018-12-20T11:42:50.531Z,5.99
2018-12-20T11:44:50.468Z,6.01
2018-12-20T11:46:49.694Z,6.07
2018-12-20T11:48:50.638Z,6.16
2018-12-20T11:50:50.657Z,6.24
2018-12-20T11:52:50.611Z,6.37
2018-12-20T11:54:50.675Z,6.58
2018-12-20T11:56:49.848Z,6.79
2018-12-20T11:58:49.843Z,6.86
2018-12-20T12:00:50.000Z,6.85
2018-12-20T12:02:50.141Z,6.89
2018-12-20T12:04:50.702Z,6.94
2018-12-20T12:06:50.044Z,6.93
2018-12-20T12:08:50.190Z,6.94
2018-12-20T12:10:50.181Z,6.99
2018-12-20T12:12:50.261Z,7.04
2018-12-20T12:14:50.369Z,7.02
2018-12-20T12:16:50.491Z,7.05
2018-12-20T12:18:50.414Z,7.00
2018-12-20T12:20:50.393Z,6.99
2018-12-20T12:22:50.303Z,6.97
2018-12-20T12:24:50.376Z,6.97
2018-12-20T12:26:50.563Z,6.92
2018-12-20T12:28:50.547Z,6.90
2018-12-20T12:30:50.646Z,6.90
2018-12-20T12:32:50.639Z,6.83
2018-12-20T12:34:50.057Z,6.84
2018-12-20T12:36:50.376Z,6.81
2018-12-20T12:38:50.460Z,6.81
2018-12-20T12:40:50.429Z,6.83
2018-12-20T12:42:50.360Z,6.84
2018-12-20T12:44:50.356Z,6.85
2018-12-20T12:46:50.515Z,6.87
2018-12-20T12:48:50.446Z,6.89
2018-12-20T12:50:50.400Z,6.92
2018-12-20T12:52:50.359Z,6.91
2018-12-20T12:54:50.296Z,6.90
2018-12-20T12:56:50.466Z,6.92
2018-12-20T12:58:50.387Z,6.92
2018-12-20T13:00:50.408Z,6.82
2018-12-20T13:02:50.360Z,6.77
2018-12-20T13:04:50.628Z,6.71
2018-12-20T13:06:49.810Z,6.70
2018-12-20T13:08:49.893Z,6.68
2018-12-20T13:10:49.851Z,6.70
2018-12-20T13:12:49.832Z,6.70
2018-12-20T13:14:49.828Z,6.65
2018-12-20T13:16:49.964Z,6.61
2018-12-20T13:18:49.953Z,6.60
2018-12-20T13:20:49.918Z,6.55
2018-12-20T13:22:49.907Z,6.52
2018-12-20T13:24:49.881Z,6.50
2018-12-20T13:26:50.100Z,6.49
2018-12-20T13:28:50.278Z,6.49
2018-12-20T13:30:50.648Z,6.51
2018-12-20T13:32:50.580Z,6.52
2018-12-20T13:34:49.804Z,6.50
2018-12-20T13:36:50.489Z,6.47
2018-12-20T13:38:50.426Z,6.45
2018-12-20T13:40:50.457Z,6.41
2018-12-20T13:42:50.491Z,6.32
2018-12-20T13:44:50.494Z,6.26
2018-12-20T13:46:50.404Z,6.26
2018-12-20T13:48:49.723Z,6.21
2018-12-20T13:50:49.693Z,6.18
2018-12-20T13:52:49.716Z,6.15
2018-12-20T13:54:49.676Z,6.13
2018-12-20T13:56:49.858Z,6.11
2018-12-20T13:58:49.809Z,6.07
2018-12-20T14:00:49.819Z,6.06
2018-12-20T14:02:49.896Z,6.04
2018-12-20T14:04:50.302Z,6.02
2018-12-20T14:06:50.702Z,6.00
2018-12-20T14:08:49.727Z,5.98
2018-12-20T14:10:49.756Z,5.97
2018-12-20T14:12:49.822Z,5.93
2018-12-20T14:14:49.789Z,5.91
2018-12-20T14:16:49.953Z,5.87
2018-12-20T14:18:49.938Z,5.84
2018-12-20T14:20:49.918Z,5.78
2018-12-20T14:22:49.972Z,5.74
2018-12-20T14:24:50.283Z,5.71
2018-12-20T14:26:50.478Z,5.67
2018-12-20T14:28:50.351Z,5.64
2018-12-20T14:30:50.350Z,5.60
2018-12-20T14:32:50.272Z,5.57
2018-12-20T14:34:50.538Z,5.53
2018-12-20T14:36:49.798Z,5.49
2018-12-20T14:38:49.883Z,5.44
2018-12-20T14:40:49.947Z,5.39
2018-12-20T14:42:49.959Z,5.31
2018-12-20T14:44:49.938Z,5.25
2018-12-20T14:46:50.134Z,5.22
2018-12-20T14:48:50.141Z,5.19
2018-12-20T14:50:50.087Z,5.16
2018-12-20T14:52:50.122Z,5.12
2018-12-20T14:54:50.105Z,5.09
2018-12-20T14:56:50.193Z,5.04
2018-12-20T14:58:50.159Z,5.01
2018-12-20T15:00:50.203Z,4.98
2018-12-20T15:02:50.261Z,4.96
2018-12-20T15:04:50.656Z,4.95
2018-12-20T15:06:49.905Z,4.94
2018-12-20T15:08:49.906Z,4.93
2018-12-20T15:10:49.912Z,4.93
2018-12-20T15:12:49.881Z,4.93
2018-12-20T15:14:49.837Z,4.93
2018-12-20T15:16:50.078Z,4.92
2018-12-20T15:18:50.067Z,4.91
2018-12-20T15:20:50.031Z,4.91
2018-12-20T15:22:50.040Z,4.91
2018-12-20T15:24:49.992Z,4.90
2018-12-20T15:26:50.060Z,4.90
2018-12-20T15:28:49.975Z,4.88
2018-12-20T15:30:50.018Z,4.90
2018-12-20T15:32:49.939Z,4.90
2018-12-20T15:34:50.203Z,4.88
2018-12-20T15:36:50.381Z,4.88
2018-12-20T15:38:50.430Z,4.88
2018-12-20T15:40:50.307Z,4.87
2018-12-20T15:42:50.365Z,4.87
2018-12-20T15:44:50.318Z,4.86
2018-12-20T15:46:50.499Z,4.85
2018-12-20T15:48:56.843Z,4.83
2018-12-20T15:50:49.851Z,4.82
2018-12-20T15:52:50.006Z,4.83
2018-12-20T15:54:49.926Z,4.82
2018-12-20T15:56:49.934Z,4.81
2018-12-20T15:58:49.878Z,4.80
2018-12-20T16:00:49.945Z,4.78
2018-12-20T16:02:49.863Z,4.78
2018-12-20T16:04:50.309Z,4.78
2018-12-20T16:06:50.497Z,4.78
2018-12-20T16:08:50.461Z,4.76
2018-12-20T16:10:50.513Z,4.76
2018-12-20T16:12:50.476Z,4.76
2018-12-20T16:14:50.433Z,4.75
2018-12-20T16:16:49.780Z,4.76
2018-12-20T16:18:49.761Z,4.76
2018-12-20T16:20:50.035Z,4.76
2018-12-20T16:22:49.986Z,4.75
2018-12-20T16:24:49.922Z,4.75
2018-12-20T16:26:50.140Z,4.75
2018-12-20T16:28:50.098Z,4.75
2018-12-20T16:30:50.185Z,4.76
2018-12-20T16:32:50.179Z,4.76
2018-12-20T16:34:50.386Z,4.77
2018-12-20T16:36:50.617Z,4.76
2018-12-20T16:38:50.546Z,4.76
2018-12-20T16:40:50.514Z,4.77
2018-12-20T16:42:50.635Z,4.78
2018-12-20T16:44:50.522Z,4.78
2018-12-20T16:46:49.689Z,4.78
2018-12-20T16:48:49.678Z,4.77
2018-12-20T16:50:50.683Z,4.77
2018-12-20T16:52:49.748Z,4.78
2018-12-20T16:54:49.734Z,4.77
2018-12-20T16:56:50.064Z,4.76
2018-12-20T16:58:50.103Z,4.75
2018-12-20T17:00:50.205Z,4.72
2018-12-20T17:02:50.251Z,4.69
2018-12-20T17:04:50.555Z,4.68
2018-12-20T17:06:49.945Z,4.66
2018-12-20T17:08:49.919Z,4.64
2018-12-20T17:10:49.883Z,4.62
2018-12-20T17:12:49.876Z,4.61
2018-12-20T17:14:49.869Z,4.60
2018-12-20T17:16:50.111Z,4.60
2018-12-20T17:18:50.100Z,4.61
2018-12-20T17:20:50.134Z,4.62
2018-12-20T17:22:50.208Z,4.59
2018-12-20T17:24:50.226Z,4.56
2018-12-20T17:26:50.465Z,4.54
2018-12-20T17:28:50.422Z,4.53
2018-12-20T17:30:50.455Z,4.51
2018-12-20T17:32:50.483Z,4.51
2018-12-20T17:34:49.811Z,4.49
2018-12-20T17:36:50.060Z,4.49
2018-12-20T17:38:49.989Z,4.49
2018-12-20T17:40:49.950Z,4.50
2018-12-20T17:42:49.957Z,4.52
2018-12-20T17:44:49.898Z,4.53
2018-12-20T17:46:50.201Z,4.54
2018-12-20T17:48:50.208Z,4.53
2018-12-20T17:50:50.240Z,4.55
2018-12-20T17:52:50.270Z,4.57
2018-12-20T17:54:50.323Z,4.61
2018-12-20T17:56:50.516Z,4.61
2018-12-20T17:58:50.478Z,4.60
2018-12-20T18:00:50.447Z,4.59
2018-12-20T18:02:50.401Z,4.58
2018-12-20T18:04:49.755Z,4.57
2018-12-20T18:06:49.904Z,4.57
2018-12-20T18:08:49.876Z,4.56
2018-12-20T18:10:49.876Z,4.55
2018-12-20T18:12:49.849Z,4.54
2018-12-20T18:14:49.840Z,4.54
2018-12-20T18:16:49.958Z,4.52
2018-12-20T18:18:49.900Z,4.52
2018-12-20T18:20:49.910Z,4.52
2018-12-20T18:22:49.937Z,4.51
2018-12-20T18:24:49.925Z,4.52
2018-12-20T18:26:50.216Z,4.51
2018-12-20T18:28:50.212Z,4.51
2018-12-20T18:30:50.275Z,4.50
2018-12-20T18:32:50.216Z,4.50
2018-12-20T18:34:50.624Z,4.50
2018-12-20T18:36:49.856Z,4.50
2018-12-20T18:38:49.862Z,4.51
2018-12-20T18:40:49.820Z,4.52
2018-12-20T18:42:49.830Z,4.52
2018-12-20T18:44:49.969Z,4.51
2018-12-20T18:46:50.029Z,4.50
2018-12-20T18:48:50.086Z,4.50
2018-12-20T18:50:50.080Z,4.51
2018-12-20T18:52:50.078Z,4.51
2018-12-20T18:54:50.069Z,4.50
2018-12-20T18:56:50.215Z,4.47
2018-12-20T18:58:50.156Z,4.46
2018-12-20T19:00:50.188Z,4.47
2018-12-20T19:02:50.152Z,4.47
2018-12-20T19:04:50.629Z,4.45
2018-12-20T19:06:49.890Z,4.43
2018-12-20T19:08:49.953Z,4.43
2018-12-20T19:10:49.902Z,4.44
2018-12-20T19:12:49.926Z,4.46
2018-12-20T19:14:49.848Z,4.45
2018-12-20T19:16:50.214Z,4.44
2018-12-20T19:18:50.367Z,4.44
2018-12-20T19:20:50.374Z,4.44
2018-12-20T19:22:50.580Z,4.44
2018-12-20T19:24:50.549Z,4.46
2018-12-20T19:26:51.333Z,4.47
2018-12-20T19:28:50.352Z,4.50
2018-12-20T19:30:50.390Z,4.52
2018-12-20T19:32:50.495Z,4.54
2018-12-20T19:34:49.769Z,4.54
2018-12-20T19:36:50.007Z,4.61
2018-12-20T19:38:50.136Z,4.64
2018-12-20T19:40:50.142Z,4.64
2018-12-20T19:42:50.247Z,4.66
2018-12-20T19:44:50.217Z,4.68
2018-12-20T19:46:50.480Z,4.71
2018-12-20T19:48:50.525Z,4.72
2018-12-20T19:50:50.469Z,4.73
2018-12-20T19:52:50.576Z,4.77
2018-12-20T19:54:50.611Z,4.81
2018-12-20T19:56:49.696Z,4.81
2018-12-20T19:58:49.810Z,4.82
2018-12-20T20:00:49.780Z,4.82
2018-12-20T20:02:49.803Z,4.80
2018-12-20T20:04:50.196Z,4.78
2018-12-20T20:06:50.287Z,4.73
2018-12-20T20:08:50.254Z,4.71
2018-12-20T20:10:50.183Z,4.66
2018-12-20T20:12:50.156Z,4.61
2018-12-20T20:14:50.179Z,4.59
2018-12-20T20:16:51.386Z,4.56
2018-12-20T20:18:50.346Z,4.56
2018-12-20T20:20:50.471Z,4.60
2018-12-20T20:22:50.492Z,4.61
2018-12-20T20:24:50.477Z,4.63
2018-12-20T20:26:50.676Z,4.66
2018-12-20T20:28:50.685Z,4.67
2018-12-20T20:30:50.675Z,4.71
2018-12-20T20:32:49.892Z,4.73
2018-12-20T20:34:50.282Z,4.72
2018-12-20T20:36:50.521Z,4.72
2018-12-20T20:38:50.480Z,4.73
2018-12-20T20:40:50.410Z,4.74
2018-12-20T20:42:50.446Z,4.74
2018-12-20T20:44:50.314Z,4.74
2018-12-20T20:46:50.461Z,4.75
2018-12-20T20:48:50.506Z,4.75
2018-12-20T20:50:50.411Z,4.74
2018-12-20T20:52:50.475Z,4.73
2018-12-20T20:54:50.411Z,4.73
2018-12-20T20:56:49.801Z,4.73
2018-12-20T20:58:49.861Z,4.71
2018-12-20T21:00:49.861Z,4.71
2018-12-20T21:02:49.878Z,4.71
2018-12-20T21:04:50.344Z,4.71
2018-12-20T21:06:50.508Z,4.72
2018-12-20T21:08:50.509Z,4.72
2018-12-20T21:10:50.443Z,4.72
2018-12-20T21:12:50.500Z,4.69
2018-12-20T21:14:53.069Z,4.69
2018-12-20T21:16:50.361Z,4.69
2018-12-20T21:18:50.366Z,4.69
2018-12-20T21:20:50.343Z,4.67
2018-12-20T21:22:50.410Z,4.66
2018-12-20T21:24:50.364Z,4.64
2018-12-20T21:26:50.624Z,4.62
2018-12-20T21:28:50.717Z,4.60
2018-12-20T21:30:49.758Z,4.60
2018-12-20T21:32:49.685Z,4.61
2018-12-20T21:34:49.936Z,4.61
2018-12-20T21:36:50.245Z,4.61
2018-12-20T21:38:50.221Z,4.59
2018-12-20T21:40:50.273Z,4.58
2018-12-20T21:42:50.278Z,4.58
2018-12-20T21:44:50.243Z,4.59
2018-12-20T21:46:50.448Z,4.59
2018-12-20T21:48:50.521Z,4.60
2018-12-20T21:50:50.617Z,4.61
2018-12-20T21:52:50.617Z,4.62
2018-12-20T21:54:50.551Z,4.62
2018-12-20T21:56:49.871Z,4.61
2018-12-20T21:58:49.904Z,4.62
2018-12-20T22:00:49.914Z,4.62
2018-12-20T22:02:49.936Z,4.61
2018-12-20T22:04:50.242Z,4.60
2018-12-20T22:06:50.425Z,4.60
2018-12-20T22:08:50.367Z,4.60
2018-12-20T22:10:50.314Z,4.61
2018-12-20T22:12:50.322Z,4.62
2018-12-20T22:14:50.285Z,4.63
2018-12-20T22:16:50.680Z,4.64
2018-12-20T22:18:49.700Z,4.64
2018-12-20T22:20:49.715Z,4.62
2018-12-20T22:22:49.670Z,4.60
2018-12-20T22:24:50.664Z,4.60
2018-12-20T22:26:49.920Z,4.47
2018-12-20T22:28:49.872Z,4.43
2018-12-20T22:30:49.922Z,4.46
2018-12-20T22:32:49.891Z,4.49
2018-12-20T22:34:50.153Z,4.51
2018-12-20T22:36:50.372Z,4.53
2018-12-20T22:38:50.268Z,4.55
2018-12-20T22:40:50.235Z,4.54
2018-12-20T22:42:50.211Z,4.52
2018-12-20T22:44:50.122Z,4.47
2018-12-20T22:46:50.364Z,4.43
2018-12-20T22:48:50.367Z,4.34
2018-12-20T22:50:56.475Z,4.31
2018-12-20T22:52:50.452Z,4.25
2018-12-20T22:54:50.490Z,4.19
2018-12-20T22:56:49.695Z,4.16
2018-12-20T22:58:49.804Z,4.15
2018-12-20T23:00:49.847Z,4.18
2018-12-20T23:02:49.852Z,4.22
2018-12-20T23:04:50.258Z,4.24
2018-12-20T23:06:50.352Z,4.33
2018-12-20T23:08:50.423Z,4.42
2018-12-20T23:10:50.389Z,4.46
2018-12-20T23:12:50.449Z,4.50
2018-12-20T23:14:50.378Z,4.56
2018-12-20T23:16:54.280Z,4.62
2018-12-20T23:18:50.351Z,4.65
2018-12-20T23:20:50.305Z,4.68
2018-12-20T23:22:50.292Z,4.68
2018-12-20T23:24:50.288Z,4.70
2018-12-20T23:26:50.398Z,4.70
2018-12-20T23:28:50.323Z,4.72
2018-12-20T23:30:50.298Z,4.73
2018-12-20T23:32:50.346Z,4.73
2018-12-20T23:34:50.546Z,4.71
2018-12-20T23:36:49.711Z,4.69
2018-12-20T23:38:49.784Z,4.68
2018-12-20T23:40:49.709Z,4.67
2018-12-20T23:42:49.693Z,4.67
2018-12-20T23:44:49.718Z,4.69
2018-12-20T23:46:49.879Z,4.68
2018-12-20T23:48:49.948Z,4.67
2018-12-20T23:50:49.948Z,4.70
2018-12-20T23:52:49.958Z,4.70
2018-12-20T23:54:49.991Z,4.73
2018-12-20T23:56:50.167Z,4.74
2018-12-20T23:58:50.145Z,4.71
